createdAt,value
2023-12-31T00:00:59.367Z,984.7
2023-12-31T00:01:59.353Z,984.9
2023-12-31T00:02:59.322Z,984.9
2023-12-31T00:03:59.419Z,985.4
2023-12-31T00:05:02.940Z,985.4
2023-12-31T00:05:59.346Z,985.4
2023-12-31T00:06:59.333Z,985.4
2023-12-31T00:07:59.338Z,984.5
2023-12-31T00:08:59.343Z,984.3
2023-12-31T00:09:59.356Z,984.5
2023-12-31T00:10:59.336Z,984.3
2023-12-31T00:12:04.799Z,984
2023-12-31T00:12:59.344Z,983.8
2023-12-31T00:13:59.332Z,983.8
2023-12-31T00:14:59.325Z,983.8
2023-12-31T00:15:59.342Z,984
2023-12-31T00:16:59.357Z,984
2023-12-31T00:17:59.443Z,984
2023-12-31T00:18:59.419Z,984
2023-12-31T00:19:59.430Z,984
2023-12-31T00:20:59.337Z,984
2023-12-31T00:21:59.353Z,984
2023-12-31T00:23:19.966Z,984
2023-12-31T00:23:59.362Z,984
2023-12-31T00:24:59.376Z,984
2023-12-31T00:25:59.326Z,984
2023-12-31T00:26:59.367Z,984
2023-12-31T00:27:59.340Z,983.8
2023-12-31T00:28:59.332Z,983.6
2023-12-31T00:29:59.370Z,983.6
2023-12-31T00:30:59.405Z,983.6
2023-12-31T00:31:59.331Z,983.6
2023-12-31T00:32:59.380Z,983.6
2023-12-31T00:33:59.504Z,983.6
2023-12-31T00:34:59.334Z,983.6
2023-12-31T00:35:59.337Z,983.6
2023-12-31T00:36:59.348Z,983.6
2023-12-31T00:37:59.337Z,983.6
2023-12-31T00:38:59.339Z,983.6
2023-12-31T00:39:59.358Z,983.6
2023-12-31T00:40:59.337Z,983.4
2023-12-31T00:41:59.349Z,983.4
2023-12-31T00:42:59.343Z,983.4
2023-12-31T00:43:59.338Z,983.2
2023-12-31T00:44:59.373Z,983.2
2023-12-31T00:45:59.332Z,983.2
2023-12-31T00:46:59.345Z,983.2
2023-12-31T00:47:59.487Z,983.2
2023-12-31T00:48:59.432Z,983.4
2023-12-31T00:49:59.334Z,983.6
2023-12-31T00:50:59.335Z,983.6
2023-12-31T00:51:59.336Z,983.6
2023-12-31T00:52:59.335Z,983.6
2023-12-31T00:53:59.325Z,983.6
2023-12-31T00:54:59.344Z,983.6
2023-12-31T00:55:59.350Z,983.6
2023-12-31T00:56:59.340Z,983.6
2023-12-31T00:57:59.337Z,983.6
2023-12-31T00:58:59.350Z,983.8
2023-12-31T00:59:59.352Z,984.5
2023-12-31T01:00:59.352Z,984.5
2023-12-31T01:01:59.372Z,984.5
2023-12-31T01:02:59.413Z,984.5
2023-12-31T01:03:59.345Z,984.5
2023-12-31T01:04:59.451Z,984.5
2023-12-31T01:06:04.963Z,984.7
2023-12-31T01:06:59.337Z,984.5
2023-12-31T01:07:59.338Z,984.7
2023-12-31T01:08:59.338Z,984.7
2023-12-31T01:09:59.363Z,984.7
2023-12-31T01:10:59.342Z,984.9
2023-12-31T01:11:59.341Z,984.9
2023-12-31T01:13:08.009Z,985.1
2023-12-31T01:13:59.415Z,984.9
2023-12-31T01:14:59.343Z,985.1
2023-12-31T01:15:59.344Z,984.9
2023-12-31T01:16:59.362Z,984.9
2023-12-31T01:17:59.483Z,984.9
2023-12-31T01:18:59.373Z,984.9
2023-12-31T01:19:59.380Z,985.1
2023-12-31T01:20:59.349Z,985.4
2023-12-31T01:21:59.339Z,985.4
2023-12-31T01:22:59.356Z,985.6
2023-12-31T01:23:59.370Z,985.6
2023-12-31T01:24:59.364Z,985.6
2023-12-31T01:25:59.338Z,985.8
2023-12-31T01:26:59.340Z,985.8
2023-12-31T01:27:59.346Z,985.8
2023-12-31T01:28:59.368Z,985.8
2023-12-31T01:29:59.349Z,985.8
2023-12-31T01:30:59.396Z,985.8
2023-12-31T01:31:59.348Z,986
2023-12-31T01:32:59.388Z,986
2023-12-31T01:33:59.397Z,986
2023-12-31T01:34:59.348Z,986.2
2023-12-31T01:35:59.355Z,986
2023-12-31T01:36:59.332Z,986
2023-12-31T01:37:59.336Z,986
2023-12-31T01:38:59.338Z,986
2023-12-31T01:39:59.362Z,986
2023-12-31T01:40:59.342Z,986
2023-12-31T01:41:59.353Z,986
2023-12-31T01:42:59.339Z,985.8
2023-12-31T01:43:59.339Z,986
2023-12-31T01:44:59.344Z,985.8
2023-12-31T01:45:59.345Z,985.8
2023-12-31T01:47:19.869Z,985.8
2023-12-31T01:47:59.383Z,985.6
2023-12-31T01:48:59.401Z,985.6
2023-12-31T01:50:01.162Z,985.8
2023-12-31T01:50:59.339Z,985.8
2023-12-31T01:51:59.348Z,985.8
2023-12-31T01:52:59.353Z,985.8
2023-12-31T01:53:59.345Z,985.8
2023-12-31T01:54:59.348Z,985.8
2023-12-31T01:55:59.349Z,985.8
2023-12-31T01:57:59.378Z,985.8
2023-12-31T01:58:59.347Z,985.8
2023-12-31T01:59:59.365Z,985.8
2023-12-31T02:00:59.404Z,985.6
2023-12-31T02:01:59.445Z,985.8
2023-12-31T02:02:59.394Z,985.8
2023-12-31T02:03:59.349Z,985.8
2023-12-31T02:04:59.428Z,986
2023-12-31T02:05:59.345Z,986.2
2023-12-31T02:06:59.354Z,986.2
2023-12-31T02:07:59.351Z,986.2
2023-12-31T02:08:59.348Z,986
2023-12-31T02:09:59.370Z,986.2
2023-12-31T02:10:59.368Z,986.2
2023-12-31T02:11:59.348Z,986.2
2023-12-31T02:12:59.349Z,986.2
2023-12-31T02:13:59.351Z,986.2
2023-12-31T02:15:00.082Z,986.2
2023-12-31T02:15:59.365Z,986.2
2023-12-31T02:16:59.358Z,986.2
2023-12-31T02:17:59.421Z,985.8
2023-12-31T02:18:59.399Z,985.8
2023-12-31T02:19:59.357Z,985.8
2023-12-31T02:20:59.341Z,985.8
2023-12-31T02:22:01.870Z,985.8
2023-12-31T02:22:59.341Z,985.8
2023-12-31T02:23:59.412Z,986
2023-12-31T02:24:59.426Z,986.2
2023-12-31T02:25:59.943Z,986.2
2023-12-31T02:26:59.364Z,986.2
2023-12-31T02:27:59.363Z,986.2
2023-12-31T02:28:59.340Z,986.2
2023-12-31T02:29:59.358Z,986
2023-12-31T02:30:59.340Z,986.2
2023-12-31T02:32:05.397Z,986.2
2023-12-31T02:32:59.498Z,986
2023-12-31T02:33:59.413Z,986
2023-12-31T02:35:06.576Z,985.8
2023-12-31T02:35:59.347Z,985.8
2023-12-31T02:36:59.369Z,985.8
2023-12-31T02:37:59.373Z,985.6
2023-12-31T02:38:59.343Z,985.6
2023-12-31T02:39:59.384Z,985.8
2023-12-31T02:40:59.343Z,985.8
2023-12-31T02:41:59.350Z,986
2023-12-31T02:42:59.342Z,986.2
2023-12-31T02:43:59.359Z,986.2
2023-12-31T02:45:08.950Z,986.2
2023-12-31T02:45:59.353Z,986.2
2023-12-31T02:46:59.360Z,986.2
2023-12-31T02:47:59.448Z,986.2
2023-12-31T02:48:59.401Z,986.2
2023-12-31T02:49:59.370Z,986.4
2023-12-31T02:50:59.354Z,986.7
2023-12-31T02:51:59.356Z,986.7
2023-12-31T02:52:59.357Z,986.7
2023-12-31T02:53:59.392Z,986.4
2023-12-31T02:54:59.343Z,986.2
2023-12-31T02:55:59.343Z,986.2
2023-12-31T02:56:59.356Z,986.2
2023-12-31T02:57:59.361Z,986.2
2023-12-31T02:58:59.354Z,986.2
2023-12-31T03:00:00.501Z,986.2
2023-12-31T03:00:59.206Z,986.2
2023-12-31T03:01:59.352Z,986
2023-12-31T03:02:59.373Z,986
2023-12-31T03:03:59.357Z,985.8
2023-12-31T03:04:59.367Z,986
2023-12-31T03:06:04.254Z,986
2023-12-31T03:06:59.345Z,986.2
2023-12-31T03:07:59.339Z,986.2
2023-12-31T03:08:59.355Z,986.2
2023-12-31T03:09:59.433Z,986.2
2023-12-31T03:10:59.358Z,986.2
2023-12-31T03:11:59.348Z,986.2
2023-12-31T03:12:59.366Z,986.2
2023-12-31T03:13:59.375Z,986.2
2023-12-31T03:14:59.346Z,986.2
2023-12-31T03:15:59.342Z,986.4
2023-12-31T03:16:59.354Z,986.7
2023-12-31T03:17:59.507Z,986.7
2023-12-31T03:18:59.350Z,986.7
2023-12-31T03:19:59.396Z,986.7
2023-12-31T03:20:59.376Z,986.7
2023-12-31T03:21:59.357Z,986.7
2023-12-31T03:22:59.408Z,986.4
2023-12-31T03:23:59.368Z,986.4
2023-12-31T03:24:59.387Z,986.4
2023-12-31T03:25:59.340Z,986.4
2023-12-31T03:26:59.353Z,986.7
2023-12-31T03:27:59.339Z,986.7
2023-12-31T03:28:59.351Z,986.7
2023-12-31T03:29:59.372Z,986.7
2023-12-31T03:30:59.416Z,986.4
2023-12-31T03:31:59.420Z,986.2
2023-12-31T03:33:04.702Z,986.2
2023-12-31T03:33:59.370Z,986.2
2023-12-31T03:35:06.809Z,986.2
2023-12-31T03:35:59.354Z,986.2
2023-12-31T03:36:59.342Z,986.2
2023-12-31T03:37:59.338Z,986.2
2023-12-31T03:38:59.350Z,986.2
2023-12-31T03:39:59.372Z,986.4
2023-12-31T03:40:59.357Z,986.7
2023-12-31T03:41:59.348Z,986.7
2023-12-31T03:42:59.338Z,986.7
2023-12-31T03:43:59.350Z,986.7
2023-12-31T03:44:59.360Z,986.7
2023-12-31T03:45:59.341Z,986.7
2023-12-31T03:46:59.360Z,986.7
2023-12-31T03:47:59.454Z,986.4
2023-12-31T03:48:59.423Z,986.4
2023-12-31T03:49:59.345Z,986.2
2023-12-31T03:50:59.339Z,986.2
2023-12-31T03:51:59.344Z,986.2
2023-12-31T03:52:59.344Z,986.2
2023-12-31T03:53:59.347Z,986
2023-12-31T03:54:59.375Z,986.2
2023-12-31T03:55:59.428Z,986.2
2023-12-31T03:56:59.329Z,986.4
2023-12-31T03:57:59.328Z,986.4
2023-12-31T03:58:59.345Z,986.4
2023-12-31T03:59:59.339Z,986.4
2023-12-31T04:00:59.395Z,986.4
2023-12-31T04:01:59.489Z,986.4
2023-12-31T04:02:59.334Z,986.4
2023-12-31T04:03:59.355Z,986.4
2023-12-31T04:04:59.381Z,986.2
2023-12-31T04:05:59.464Z,986.2
2023-12-31T04:06:59.358Z,986.2
2023-12-31T04:07:59.364Z,986.2
2023-12-31T04:08:59.337Z,986.2
2023-12-31T04:09:59.349Z,986.2
2023-12-31T04:10:59.331Z,986
2023-12-31T04:11:59.335Z,986
2023-12-31T04:12:59.380Z,986.2
2023-12-31T04:14:59.363Z,986
2023-12-31T04:15:59.342Z,985.8
2023-12-31T04:16:59.329Z,985.8
2023-12-31T04:17:59.402Z,985.8
2023-12-31T04:18:59.337Z,985.8
2023-12-31T04:19:59.348Z,985.8
2023-12-31T04:20:59.330Z,985.8
2023-12-31T04:21:59.336Z,985.8
2023-12-31T04:22:59.333Z,985.8
2023-12-31T04:23:59.341Z,985.8
2023-12-31T04:24:59.363Z,985.8
2023-12-31T04:25:59.396Z,985.8
2023-12-31T04:26:59.621Z,985.8
2023-12-31T04:27:59.383Z,986
2023-12-31T04:28:59.457Z,986
2023-12-31T04:29:59.340Z,986.2
2023-12-31T04:30:59.370Z,986.2
2023-12-31T04:31:59.398Z,986
2023-12-31T04:32:59.390Z,986
2023-12-31T04:33:59.387Z,986
2023-12-31T04:34:59.334Z,985.8
2023-12-31T04:35:59.331Z,986
2023-12-31T04:36:59.333Z,986
2023-12-31T04:37:59.338Z,986
2023-12-31T04:38:59.333Z,985.8
2023-12-31T04:39:59.796Z,985.8
2023-12-31T04:40:59.335Z,985.6
2023-12-31T04:41:59.330Z,985.4
2023-12-31T04:42:59.416Z,985.4
2023-12-31T04:43:59.329Z,985.4
2023-12-31T04:44:59.364Z,985.4
2023-12-31T04:45:59.327Z,985.4
2023-12-31T04:47:01.724Z,985.6
2023-12-31T04:47:59.433Z,985.8
2023-12-31T04:48:59.364Z,985.8
2023-12-31T04:49:59.404Z,985.8
2023-12-31T04:50:59.337Z,985.8
2023-12-31T04:51:59.335Z,986
2023-12-31T04:52:59.356Z,985.8
2023-12-31T04:54:04.482Z,985.8
2023-12-31T04:54:59.329Z,985.8
2023-12-31T04:55:59.344Z,985.8
2023-12-31T04:56:59.349Z,985.8
2023-12-31T04:57:59.327Z,985.8
2023-12-31T04:58:59.389Z,985.8
2023-12-31T04:59:59.339Z,985.8
2023-12-31T05:00:59.352Z,985.8
2023-12-31T05:01:59.357Z,985.8
2023-12-31T05:02:59.331Z,985.8
2023-12-31T05:03:59.374Z,985.8
2023-12-31T05:04:59.472Z,985.8
2023-12-31T05:05:59.361Z,985.8
2023-12-31T05:06:59.332Z,985.8
2023-12-31T05:07:59.324Z,986
2023-12-31T05:08:59.325Z,986
2023-12-31T05:09:59.336Z,986.2
2023-12-31T05:10:59.344Z,986.2
2023-12-31T05:12:00.960Z,986.2
2023-12-31T05:12:59.322Z,986.2
2023-12-31T05:13:59.324Z,986.2
2023-12-31T05:14:59.324Z,986.7
2023-12-31T05:15:59.340Z,986.7
2023-12-31T05:16:59.437Z,986.7
2023-12-31T05:17:59.414Z,986.4
2023-12-31T05:18:59.350Z,986.2
2023-12-31T05:19:59.335Z,985.8
2023-12-31T05:20:59.328Z,985.4
2023-12-31T05:21:59.357Z,985.4
2023-12-31T05:22:59.367Z,985.4
2023-12-31T05:23:59.326Z,985.4
2023-12-31T05:24:59.347Z,985.6
2023-12-31T05:25:59.325Z,985.8
2023-12-31T05:26:59.324Z,985.8
2023-12-31T05:27:59.329Z,986.2
2023-12-31T05:28:59.359Z,986
2023-12-31T05:29:59.334Z,985.8
2023-12-31T05:30:59.433Z,985.4
2023-12-31T05:31:59.398Z,985.4
2023-12-31T05:32:59.371Z,985.1
2023-12-31T05:33:59.392Z,985.1
2023-12-31T05:34:59.333Z,984.9
2023-12-31T05:35:59.346Z,984.9
2023-12-31T05:36:59.334Z,985.1
2023-12-31T05:37:59.323Z,985.4
2023-12-31T05:38:59.332Z,985.8
2023-12-31T05:39:59.347Z,985.8
2023-12-31T05:40:59.358Z,985.8
2023-12-31T05:41:59.335Z,985.8
2023-12-31T05:42:59.348Z,985.8
2023-12-31T05:43:59.352Z,985.8
2023-12-31T05:44:59.343Z,985.8
2023-12-31T05:45:59.333Z,985.6
2023-12-31T05:46:59.414Z,985.4
2023-12-31T05:47:59.556Z,985.4
2023-12-31T05:48:59.519Z,985.4
2023-12-31T05:49:59.449Z,985.6
2023-12-31T05:50:59.334Z,985.8
2023-12-31T05:51:59.335Z,985.6
2023-12-31T05:52:59.354Z,985.6
2023-12-31T05:53:59.337Z,985.4
2023-12-31T05:54:59.386Z,985.4
2023-12-31T05:55:59.333Z,985.4
2023-12-31T05:56:59.338Z,985.4
2023-12-31T05:58:03.885Z,985.4
2023-12-31T05:58:59.327Z,985.8
2023-12-31T05:59:59.340Z,985.8
2023-12-31T06:00:59.340Z,985.4
2023-12-31T06:01:59.334Z,985.8
2023-12-31T06:02:59.336Z,986
2023-12-31T06:03:59.353Z,986
2023-12-31T06:04:59.337Z,986
2023-12-31T06:05:59.398Z,985.8
2023-12-31T06:06:59.340Z,985.8
2023-12-31T06:07:59.328Z,985.6
2023-12-31T06:08:59.330Z,985.4
2023-12-31T06:09:59.335Z,985.4
2023-12-31T06:10:59.339Z,985.4
2023-12-31T06:11:59.337Z,985.4
2023-12-31T06:12:59.334Z,985.6
2023-12-31T06:13:59.339Z,985.8
2023-12-31T06:14:59.341Z,985.6
2023-12-31T06:15:59.347Z,985.8
2023-12-31T06:16:59.340Z,985.8
2023-12-31T06:17:59.439Z,985.8
2023-12-31T06:18:59.357Z,985.8
2023-12-31T06:19:59.345Z,985.8
2023-12-31T06:20:59.348Z,985.8
2023-12-31T06:21:59.339Z,985.8
2023-12-31T06:22:59.347Z,985.8
2023-12-31T06:23:59.336Z,985.8
2023-12-31T06:24:59.335Z,985.8
2023-12-31T06:25:59.344Z,985.8
2023-12-31T06:27:06.215Z,985.8
2023-12-31T06:27:59.339Z,985.8
2023-12-31T06:28:59.364Z,985.8
2023-12-31T06:29:59.425Z,985.8
2023-12-31T06:30:59.384Z,985.6
2023-12-31T06:31:59.368Z,985.4
2023-12-31T06:32:59.427Z,985.4
2023-12-31T06:33:59.331Z,985.4
2023-12-31T06:34:59.353Z,985.8
2023-12-31T06:35:59.342Z,985.8
2023-12-31T06:36:59.327Z,985.8
2023-12-31T06:37:59.334Z,985.8
2023-12-31T06:38:59.342Z,985.8
2023-12-31T06:39:59.367Z,985.8
2023-12-31T06:40:59.329Z,985.8
2023-12-31T06:41:59.334Z,985.8
2023-12-31T06:42:59.357Z,985.8
2023-12-31T06:43:59.376Z,985.8
2023-12-31T06:44:59.332Z,985.6
2023-12-31T06:45:59.342Z,985.4
2023-12-31T06:46:59.357Z,985.4
2023-12-31T06:47:59.474Z,985.4
2023-12-31T06:48:59.400Z,985.4
2023-12-31T06:49:59.395Z,985.1
2023-12-31T06:51:59.328Z,984.9
2023-12-31T06:52:59.405Z,984.9
2023-12-31T06:53:59.341Z,985.4
2023-12-31T06:54:59.334Z,985.4
2023-12-31T06:55:59.381Z,985.4
2023-12-31T06:56:59.331Z,985.4
2023-12-31T06:57:59.358Z,985.4
2023-12-31T06:58:59.403Z,985.4
2023-12-31T06:59:59.342Z,985.1
2023-12-31T07:00:59.373Z,985.1
2023-12-31T07:01:59.340Z,985.4
2023-12-31T07:02:59.354Z,985.1
2023-12-31T07:03:59.333Z,985.4
2023-12-31T07:04:59.390Z,985.4
2023-12-31T07:05:59.383Z,985.4
2023-12-31T07:06:59.339Z,985.4
2023-12-31T07:07:59.440Z,985.4
2023-12-31T07:09:05.825Z,985.4
2023-12-31T07:09:59.332Z,985.4
2023-12-31T07:10:59.364Z,985.1
2023-12-31T07:11:59.335Z,985.4
2023-12-31T07:12:59.349Z,985.4
2023-12-31T07:13:59.427Z,984.9
2023-12-31T07:14:59.326Z,984.9
2023-12-31T07:15:59.333Z,984.9
2023-12-31T07:16:59.411Z,984.9
2023-12-31T07:17:59.406Z,984.9
2023-12-31T07:18:59.522Z,984.7
2023-12-31T07:19:59.392Z,984.9
2023-12-31T07:20:59.349Z,984.9
2023-12-31T07:21:59.331Z,984.9
2023-12-31T07:23:01.026Z,984.9
2023-12-31T07:23:59.337Z,984.9
2023-12-31T07:24:59.344Z,984.9
2023-12-31T07:25:59.401Z,984.9
2023-12-31T07:26:59.337Z,984.9
2023-12-31T07:27:59.361Z,984.9
2023-12-31T07:29:09.544Z,984.9
2023-12-31T07:29:59.330Z,984.9
2023-12-31T07:30:59.381Z,984.7
2023-12-31T07:31:59.355Z,984.9
2023-12-31T07:32:59.472Z,984.9
2023-12-31T07:33:59.339Z,985.1
2023-12-31T07:34:59.400Z,984.9
2023-12-31T07:35:59.334Z,984.9
2023-12-31T07:36:59.334Z,984.9
2023-12-31T07:37:59.419Z,984.7
2023-12-31T07:38:59.333Z,984.9
2023-12-31T07:40:02.284Z,984.9
2023-12-31T07:40:59.362Z,984.9
2023-12-31T07:41:59.339Z,984.9
2023-12-31T07:42:59.336Z,984.9
2023-12-31T07:43:59.368Z,984.9
2023-12-31T07:44:59.333Z,984.9
2023-12-31T07:45:59.338Z,984.9
2023-12-31T07:46:59.404Z,984.9
2023-12-31T07:47:59.447Z,984.9
2023-12-31T07:48:59.401Z,984.9
2023-12-31T07:49:59.372Z,984.5
2023-12-31T07:50:59.340Z,984.9
2023-12-31T07:51:59.339Z,984.9
2023-12-31T07:52:59.389Z,984.7
2023-12-31T07:53:59.341Z,984.5
2023-12-31T07:54:59.338Z,984.9
2023-12-31T07:55:59.373Z,984.7
2023-12-31T07:56:59.353Z,984.7
2023-12-31T07:57:59.340Z,984.7
2023-12-31T07:58:59.397Z,984.7
2023-12-31T07:59:59.337Z,984.7
2023-12-31T08:00:59.392Z,984.9
2023-12-31T08:01:59.371Z,984.9
2023-12-31T08:02:59.339Z,984.9
2023-12-31T08:03:59.377Z,984.7
2023-12-31T08:04:59.388Z,984.9
2023-12-31T08:05:59.460Z,984.7
2023-12-31T08:06:59.370Z,984.7
2023-12-31T08:08:15.659Z,984.5
2023-12-31T08:08:59.336Z,984.5
2023-12-31T08:09:59.342Z,984.5
2023-12-31T08:11:01.279Z,984.5
2023-12-31T08:11:59.332Z,984.5
2023-12-31T08:12:59.364Z,984.5
2023-12-31T08:13:59.361Z,984.5
2023-12-31T08:14:59.340Z,984.3
2023-12-31T08:15:59.451Z,984.3
2023-12-31T08:16:59.363Z,984.3
2023-12-31T08:17:59.483Z,984
2023-12-31T08:18:59.375Z,984
2023-12-31T08:19:59.379Z,984
2023-12-31T08:20:59.333Z,984
2023-12-31T08:21:59.340Z,984
2023-12-31T08:22:59.370Z,984
2023-12-31T08:23:59.337Z,984
2023-12-31T08:24:59.349Z,984
2023-12-31T08:25:59.371Z,984
2023-12-31T08:26:59.337Z,984
2023-12-31T08:27:59.350Z,984
2023-12-31T08:28:59.426Z,984
2023-12-31T08:29:59.367Z,984
2023-12-31T08:30:59.416Z,984
2023-12-31T08:31:59.385Z,984
2023-12-31T08:32:59.395Z,984
2023-12-31T08:33:59.427Z,984
2023-12-31T08:34:59.489Z,984.3
2023-12-31T08:35:59.367Z,984.3
2023-12-31T08:36:59.356Z,984.3
2023-12-31T08:37:59.375Z,984.3
2023-12-31T08:38:59.332Z,984
2023-12-31T08:39:59.390Z,984
2023-12-31T08:40:59.355Z,984
2023-12-31T08:41:59.332Z,984
2023-12-31T08:42:59.332Z,984
2023-12-31T08:43:59.395Z,984
2023-12-31T08:45:06.145Z,984
2023-12-31T08:45:59.329Z,984
2023-12-31T08:46:59.364Z,984
2023-12-31T08:47:59.437Z,984
2023-12-31T08:48:59.441Z,984
2023-12-31T08:49:59.437Z,984
2023-12-31T08:50:59.328Z,984
2023-12-31T08:51:59.338Z,984
2023-12-31T08:52:59.412Z,984
2023-12-31T08:53:59.331Z,984
2023-12-31T08:54:59.330Z,984
2023-12-31T08:55:59.360Z,984
2023-12-31T08:56:59.336Z,984
2023-12-31T08:57:59.463Z,984
2023-12-31T08:58:59.373Z,983.8
2023-12-31T08:59:59.332Z,983.6
2023-12-31T09:00:59.371Z,983.6
2023-12-31T09:01:59.373Z,983.6
2023-12-31T09:02:59.336Z,983.6
2023-12-31T09:03:59.351Z,983.6
2023-12-31T09:04:59.444Z,983.6
2023-12-31T09:05:59.339Z,983.6
2023-12-31T09:06:59.340Z,983.6
2023-12-31T09:07:59.466Z,983.6
2023-12-31T09:08:59.364Z,983.6
2023-12-31T09:09:59.333Z,983.6
2023-12-31T09:10:59.380Z,983.6
2023-12-31T09:11:59.331Z,983.4
2023-12-31T09:13:08.437Z,983.2
2023-12-31T09:13:59.425Z,983.4
2023-12-31T09:14:59.337Z,983.4
2023-12-31T09:15:59.330Z,983.4
2023-12-31T09:16:59.385Z,983.2
2023-12-31T09:17:59.354Z,983.2
2023-12-31T09:18:59.371Z,983.2
2023-12-31T09:20:59.340Z,982.7
2023-12-31T09:21:59.335Z,983
2023-12-31T09:23:01.980Z,983.2
2023-12-31T09:23:59.342Z,983.2
2023-12-31T09:24:59.342Z,983.2
2023-12-31T09:25:59.380Z,983
2023-12-31T09:26:59.344Z,983
2023-12-31T09:27:59.356Z,983.2
2023-12-31T09:28:59.416Z,983.2
2023-12-31T09:29:59.378Z,983.2
2023-12-31T09:30:59.390Z,983.2
2023-12-31T09:31:59.428Z,983.2
2023-12-31T09:32:59.425Z,983.2
2023-12-31T09:33:59.422Z,983.2
2023-12-31T09:34:59.381Z,983.2
2023-12-31T09:35:59.355Z,983.2
2023-12-31T09:36:59.344Z,983.2
2023-12-31T09:37:59.406Z,983.2
2023-12-31T09:38:59.346Z,983.2
2023-12-31T09:39:59.349Z,983.2
2023-12-31T09:40:59.449Z,983.2
2023-12-31T09:41:59.350Z,983.2
2023-12-31T09:42:59.344Z,983.2
2023-12-31T09:43:59.391Z,983.2
2023-12-31T09:45:09.283Z,983.2
2023-12-31T09:45:59.357Z,983.2
2023-12-31T09:47:06.141Z,983
2023-12-31T09:47:59.399Z,983
2023-12-31T09:48:59.373Z,983
2023-12-31T09:49:59.381Z,982.7
2023-12-31T09:50:59.361Z,982.7
2023-12-31T09:51:59.348Z,982.7
2023-12-31T09:52:59.524Z,982.7
2023-12-31T09:53:59.367Z,982.7
2023-12-31T09:54:59.347Z,982.5
2023-12-31T09:55:59.447Z,982.7
2023-12-31T09:56:59.350Z,982.7
2023-12-31T09:57:59.377Z,982.7
2023-12-31T09:59:03.438Z,982.7
2023-12-31T09:59:59.346Z,982.7
2023-12-31T10:00:59.370Z,982.7
2023-12-31T10:01:59.395Z,982.7
2023-12-31T10:02:59.360Z,982.3
2023-12-31T10:03:59.338Z,982.7
2023-12-31T10:04:59.445Z,982.5
2023-12-31T10:05:59.375Z,982.3
2023-12-31T10:06:59.345Z,982.3
2023-12-31T10:07:59.383Z,982.5
2023-12-31T10:08:59.342Z,982.5
2023-12-31T10:09:59.373Z,982.5
2023-12-31T10:10:59.416Z,982.3
2023-12-31T10:11:59.344Z,982.3
2023-12-31T10:12:59.343Z,981.7
2023-12-31T10:13:59.420Z,981.4
2023-12-31T10:14:59.353Z,981.4
2023-12-31T10:15:59.341Z,981.2
2023-12-31T10:16:59.441Z,981.2
2023-12-31T10:17:59.456Z,981.4
2023-12-31T10:18:59.443Z,981.4
2023-12-31T10:19:59.447Z,980.8
2023-12-31T10:20:59.335Z,981.2
2023-12-31T10:21:59.343Z,981.2
2023-12-31T10:22:59.373Z,981.4
2023-12-31T10:23:59.339Z,981
2023-12-31T10:24:59.349Z,981
2023-12-31T10:25:59.376Z,981
2023-12-31T10:26:59.361Z,980.6
2023-12-31T10:27:59.345Z,979.7
2023-12-31T10:28:59.375Z,979.7
2023-12-31T10:29:59.381Z,980.1
2023-12-31T10:30:59.393Z,980.1
2023-12-31T10:31:59.412Z,979.5
2023-12-31T10:32:59.368Z,978.8
2023-12-31T10:34:07.591Z,978.6
2023-12-31T10:34:59.365Z,978.8
2023-12-31T10:35:59.369Z,978.6
2023-12-31T10:36:59.339Z,978.4
2023-12-31T10:37:59.404Z,978.4
2023-12-31T10:39:05.765Z,978.4
2023-12-31T10:39:59.340Z,978.4
2023-12-31T10:40:59.398Z,978.4
2023-12-31T10:41:59.334Z,978
2023-12-31T10:42:59.335Z,977.5
2023-12-31T10:43:59.366Z,977.7
2023-12-31T10:44:59.339Z,977.7
2023-12-31T10:45:59.337Z,978.4
2023-12-31T10:46:59.377Z,978.2
2023-12-31T10:47:59.414Z,978.4
2023-12-31T10:48:59.350Z,978.4
2023-12-31T10:49:59.381Z,978
2023-12-31T10:50:59.340Z,978
2023-12-31T10:51:59.339Z,978.2
2023-12-31T10:52:59.557Z,978.2
2023-12-31T10:53:59.347Z,978
2023-12-31T10:54:59.336Z,977.5
2023-12-31T10:55:59.455Z,977.3
2023-12-31T10:56:59.336Z,977.5
2023-12-31T10:57:59.340Z,976.7
2023-12-31T10:58:59.392Z,977.1
2023-12-31T10:59:59.352Z,976.7
2023-12-31T11:00:59.387Z,976.2
2023-12-31T11:01:59.457Z,976.2
2023-12-31T11:02:59.415Z,975.8
2023-12-31T11:03:59.337Z,975.8
2023-12-31T11:04:59.440Z,975.4
2023-12-31T11:05:59.377Z,975.4
2023-12-31T11:06:59.344Z,975.1
2023-12-31T11:07:59.401Z,974.9
2023-12-31T11:08:59.356Z,974
2023-12-31T11:09:59.357Z,974.5
2023-12-31T11:10:59.416Z,974.3
2023-12-31T11:11:59.351Z,973.6
2023-12-31T11:12:59.362Z,974
2023-12-31T11:13:59.397Z,973.8
2023-12-31T11:14:59.343Z,973.6
2023-12-31T11:15:59.350Z,973.6
2023-12-31T11:16:59.375Z,974
2023-12-31T11:17:59.455Z,974.3
2023-12-31T11:18:59.414Z,974.3
2023-12-31T11:19:59.455Z,974.5
2023-12-31T11:20:59.363Z,974
2023-12-31T11:21:59.349Z,974
2023-12-31T11:22:59.397Z,974.3
2023-12-31T11:23:59.373Z,974.5
2023-12-31T11:24:59.352Z,974
2023-12-31T11:25:59.445Z,974.3
2023-12-31T11:26:59.347Z,974.3
2023-12-31T11:27:59.379Z,974.5
2023-12-31T11:28:59.372Z,974.7
2023-12-31T11:29:59.670Z,974.5
2023-12-31T11:30:59.672Z,974.7
2023-12-31T11:31:59.413Z,974.7
2023-12-31T11:32:59.419Z,974.9
2023-12-31T11:33:59.359Z,974.9
2023-12-31T11:34:59.432Z,974.9
2023-12-31T11:35:59.362Z,974.5
2023-12-31T11:36:59.362Z,974.5
2023-12-31T11:38:06.996Z,974.9
2023-12-31T11:38:59.360Z,975.4
2023-12-31T11:39:59.347Z,975.4
2023-12-31T11:40:59.374Z,975.4
2023-12-31T11:41:59.351Z,975.4
2023-12-31T11:42:59.338Z,975.4
2023-12-31T11:43:59.481Z,975.4
2023-12-31T11:44:59.346Z,975.4
2023-12-31T11:45:59.336Z,975.1
2023-12-31T11:46:59.426Z,975.8
2023-12-31T11:47:59.440Z,975.4
2023-12-31T11:48:59.368Z,974.9
2023-12-31T11:49:59.422Z,974.7
2023-12-31T11:50:59.392Z,975.4
2023-12-31T11:51:59.342Z,975.8
2023-12-31T11:52:59.401Z,975.6
2023-12-31T11:54:02.016Z,975.4
2023-12-31T11:54:59.358Z,975.6
2023-12-31T11:55:59.515Z,975.4
2023-12-31T11:56:59.346Z,975.4
2023-12-31T11:57:59.364Z,975.4
2023-12-31T11:58:59.456Z,975.4
2023-12-31T11:59:59.344Z,975.6
2023-12-31T12:00:59.383Z,975.8
2023-12-31T12:01:59.395Z,975.4
2023-12-31T12:02:59.348Z,975.1
2023-12-31T12:03:59.376Z,975.4
2023-12-31T12:04:59.461Z,975.4
2023-12-31T12:05:59.360Z,975.4
2023-12-31T12:06:59.356Z,975.4
2023-12-31T12:07:59.384Z,974.9
2023-12-31T12:08:59.343Z,975.1
2023-12-31T12:09:59.360Z,974.9
2023-12-31T12:10:59.394Z,974.7
2023-12-31T12:11:59.378Z,974.9
2023-12-31T12:13:00.900Z,974.9
2023-12-31T12:13:59.383Z,975.4
2023-12-31T12:15:10.856Z,975.6
2023-12-31T12:15:59.350Z,975.6
2023-12-31T12:16:59.430Z,975.6
2023-12-31T12:17:59.431Z,975.4
2023-12-31T12:18:59.441Z,975.4
2023-12-31T12:19:59.565Z,975.6
2023-12-31T12:20:59.358Z,975.4
2023-12-31T12:21:59.342Z,975.8
2023-12-31T12:22:59.389Z,975.6
2023-12-31T12:23:59.340Z,975.4
2023-12-31T12:24:59.343Z,974.9
2023-12-31T12:25:59.387Z,974.9
2023-12-31T12:26:59.347Z,974.9
2023-12-31T12:27:59.376Z,974.5
2023-12-31T12:28:59.411Z,974.9
2023-12-31T12:29:59.361Z,974.5
2023-12-31T12:30:59.363Z,974.5
2023-12-31T12:31:59.513Z,974.7
2023-12-31T12:33:12.812Z,974.9
2023-12-31T12:33:59.404Z,974.9
2023-12-31T12:34:59.441Z,974.9
2023-12-31T12:35:59.359Z,975.1
2023-12-31T12:36:59.367Z,975.4
2023-12-31T12:37:59.381Z,975.1
2023-12-31T12:38:59.363Z,975.4
2023-12-31T12:39:59.346Z,975.8
2023-12-31T12:40:59.372Z,975.6
2023-12-31T12:41:59.345Z,975.4
2023-12-31T12:42:59.352Z,975.4
2023-12-31T12:43:59.368Z,975.4
2023-12-31T12:44:59.379Z,975.4
2023-12-31T12:45:59.345Z,975.6
2023-12-31T12:46:59.369Z,976.2
2023-12-31T12:47:59.460Z,976.4
2023-12-31T12:48:59.347Z,976.2
2023-12-31T12:49:59.416Z,976.7
2023-12-31T12:50:59.354Z,976.9
2023-12-31T12:51:59.342Z,977.1
2023-12-31T12:52:59.386Z,977.5
2023-12-31T12:53:59.337Z,977.7
2023-12-31T12:54:59.337Z,978.2
2023-12-31T12:55:59.376Z,978
2023-12-31T12:56:59.344Z,978
2023-12-31T12:57:59.342Z,978.2
2023-12-31T12:58:59.384Z,978.8
2023-12-31T12:59:59.343Z,978.8
2023-12-31T13:00:59.373Z,978.8
2023-12-31T13:01:59.487Z,978.8
2023-12-31T13:02:59.416Z,978.8
2023-12-31T13:03:59.356Z,978.8